Time;durP1;ratioP1;P1;durP2;ratioP2;P2;SDS_P1;SDS_P2;PMS_P1;PMS_P2;Temp;Humidity;BMP_temperature;BMP_pressure;BME280_temperature;BME280_humidity;BME280_pressure;Samples;Min_cycle;Max_cycle;Signal;HPM_P1;HPM_P2
2023/05/07 00:00:08;;;;;;;;;10.00;10.00;;;;;15.96;100.00;100591.03;5075118;27;45452;-76
2023/05/07 00:02:34;;;;;;;;;8.00;7.25;;;;;16.02;100.00;100603.09;5056648;28;45552;-78
2023/05/07 00:04:59;;;;;;;;;7.00;7.00;;;;;16.05;100.00;100595.75;5074516;27;45366;-71
2023/05/07 00:07:24;;;;;;;;;33.00;31.75;;;;;16.06;100.00;100596.63;5074520;28;50483;-72
2023/05/07 00:09:49;;;;;;;;;13.25;13.25;;;;;16.08;100.00;100592.06;5056499;28;45380;-75
2023/05/07 00:12:15;;;;;;;;;8.25;8.25;;;;;16.06;100.00;100580.72;5074628;28;46083;-69
2023/05/07 00:14:41;;;;;;;;;5.75;5.75;;;;;16.12;100.00;100592.72;5074419;28;46261;-77
2023/05/07 00:17:06;;;;;;;;;5.75;5.75;;;;;16.13;100.00;100591.78;5074551;28;45389;-78
2023/05/07 00:19:31;;;;;;;;;4.00;4.00;;;;;16.11;100.00;100583.94;5074687;28;45264;-70
2023/05/07 00:21:58;;;;;;;;;7.00;7.00;;;;;16.07;100.00;100587.72;5077016;28;45461;-75
2023/05/07 00:24:23;;;;;;;;;8.75;8.75;;;;;16.08;100.00;100594.72;5081039;28;45559;-75
2023/05/07 00:26:49;;;;;;;;;8.25;8.25;;;;;16.06;100.00;100591.31;5080999;28;45221;-75
2023/05/07 00:29:14;;;;;;;;;5.00;5.00;;;;;16.11;100.00;100589.22;5081510;28;45826;-73
2023/05/07 00:31:40;;;;;;;;;7.00;7.00;;;;;16.09;100.00;100580.50;5081639;27;45525;-71
2023/05/07 00:34:05;;;;;;;;;14.00;14.00;;;;;16.11;100.00;100591.88;5081029;27;46510;-77
2023/05/07 00:36:31;;;;;;;;;55.50;46.25;;;;;16.13;100.00;100587.34;5081149;28;45274;-72
2023/05/07 00:39:00;;;;;;;;;10.00;10.00;;;;;16.14;100.00;100599.66;5081642;27;45255;-75
2023/05/07 00:41:25;;;;;;;;;8.25;8.25;;;;;16.14;100.00;100598.78;5081717;28;45386;-73
2023/05/07 00:43:51;;;;;;;;;8.00;8.00;;;;;16.14;100.00;100604.97;5080895;28;45446;-75
2023/05/07 00:46:17;;;;;;;;;5.75;5.75;;;;;16.13;100.00;100603.25;5081248;27;45364;-74
2023/05/07 00:48:42;;;;;;;;;8.75;8.75;;;;;16.10;100.00;100603.44;5081057;27;45322;-71
2023/05/07 00:51:11;;;;;;;;;10.25;10.25;;;;;16.13;100.00;100597.94;5081497;27;45311;-75
2023/05/07 00:53:36;;;;;;;;;11.00;11.00;;;;;16.14;100.00;100591.69;5062896;28;48007;-74
2023/05/07 00:56:02;;;;;;;;;6.25;5.25;;;;;16.11;100.00;100586.56;5080708;27;45352;-70
2023/05/07 00:58:27;;;;;;;;;7.00;7.00;;;;;16.11;100.00;100585.72;5081285;27;45287;-75
2023/05/07 01:00:52;;;;;;;;;11.25;11.25;;;;;16.12;100.00;100593.59;5081043;27;45297;-72
2023/05/07 01:03:18;;;;;;;;;6.50;6.50;;;;;16.12;100.00;100584.75;5080658;27;46315;-77
2023/05/07 01:05:46;;;;;;;;;9.50;9.50;;;;;16.10;100.00;100582.22;5062417;28;45402;-76
2023/05/07 01:08:13;;;;;;;;;4.00;4.00;;;;;16.11;100.00;100583.06;5080973;28;45411;-77
2023/05/07 01:10:42;;;;;;;;;3.00;3.00;;;;;16.03;100.00;100570.28;5081936;28;45756;-76
2023/05/07 01:13:10;;;;;;;;;2.25;2.25;;;;;16.04;100.00;100577.31;5084339;27;45981;-73
2023/05/07 01:15:35;;;;;;;;;4.25;4.25;;;;;16.06;100.00;100583.38;5068695;28;45307;-74
2023/05/07 01:18:00;;;;;;;;;6.75;6.00;;;;;16.04;100.00;100569.34;5066441;28;45277;-75
2023/05/07 01:20:27;;;;;;;;;3.00;3.00;;;;;16.04;100.00;100578.13;5080806;27;45598;-77
2023/05/07 01:22:54;;;;;;;;;3.75;3.75;;;;;16.04;100.00;100567.53;5080559;27;45434;-78
2023/05/07 01:25:19;;;;;;;;;2.00;2.00;;;;;16.04;100.00;100559.56;5080718;27;45349;-75
2023/05/07 01:27:44;;;;;;;;;2.00;2.00;;;;;16.03;100.00;100554.38;5080975;27;45332;-74
2023/05/07 01:30:10;;;;;;;;;5.75;5.75;;;;;16.05;100.00;100573.69;5082466;27;45516;-77
2023/05/07 01:32:42;;;;;;;;;3.00;3.00;;;;;15.97;100.00;100545.00;5082036;28;46721;-74
2023/05/07 01:35:11;;;;;;;;;1.75;1.75;;;;;16.02;100.00;100561.47;5077541;28;45381;-71
2023/05/07 01:37:37;;;;;;;;;3.00;3.00;;;;;16.04;100.00;100561.38;5077287;27;45233;-75
2023/05/07 01:40:03;;;;;;;;;2.75;2.75;;;;;16.05;100.00;100563.09;5077727;28;45470;-78
2023/05/07 01:42:29;;;;;;;;;3.00;3.00;;;;;16.04;100.00;100562.22;5076747;27;45218;-77
2023/05/07 01:44:54;;;;;;;;;10.00;10.00;;;;;16.01;100.00;100551.81;5058527;28;45335;-76
2023/05/07 01:47:21;;;;;;;;;5.25;5.25;;;;;16.01;100.00;100545.66;5076966;27;45370;-76
2023/05/07 01:49:46;;;;;;;;;3.00;3.00;;;;;16.03;100.00;100559.69;5077492;27;45530;-77
2023/05/07 01:52:13;;;;;;;;;3.00;3.00;;;;;16.00;100.00;100552.75;5076632;27;45638;-76
2023/05/07 01:54:38;;;;;;;;;3.00;3.00;;;;;15.99;100.00;100550.22;5077094;28;45375;-75
2023/05/07 01:57:03;;;;;;;;;3.75;3.75;;;;;15.98;100.00;100556.47;5077185;28;45351;-78
2023/05/07 01:59:28;;;;;;;;;3.50;3.50;;;;;16.00;100.00;100554.56;5077378;27;45622;-77
2023/05/07 02:01:54;;;;;;;;;5.00;5.00;;;;;15.99;100.00;100552.88;5076761;28;45348;-71
2023/05/07 02:04:19;;;;;;;;;3.00;3.00;;;;;16.01;100.00;100561.59;5076437;28;45450;-76
2023/05/07 02:06:45;;;;;;;;;5.00;5.00;;;;;15.99;100.00;100559.00;5076685;27;45327;-76
2023/05/07 02:09:10;;;;;;;;;4.25;4.25;;;;;16.03;100.00;100575.59;5077054;28;45395;-75
2023/05/07 02:11:36;;;;;;;;;6.00;6.00;;;;;16.02;100.00;100569.44;5076467;27;46780;-70
2023/05/07 02:14:01;;;;;;;;;5.00;5.00;;;;;16.01;100.00;100569.53;5058187;28;45285;-77
2023/05/07 02:16:26;;;;;;;;;3.25;3.25;;;;;16.00;100.00;100566.03;5076557;28;45676;-76
2023/05/07 02:18:52;;;;;;;;;3.50;3.50;;;;;15.98;100.00;100567.91;5076681;28;45228;-76
2023/05/07 02:21:17;;;;;;;;;3.00;3.00;;;;;16.00;100.00;100575.78;5057983;28;48073;-79
2023/05/07 02:23:43;;;;;;;;;6.00;6.00;;;;;16.03;100.00;100575.59;5076514;27;45302;-76
2023/05/07 02:26:08;;;;;;;;;5.00;5.00;;;;;16.03;100.00;100575.59;5078281;28;45216;-71
2023/05/07 02:28:35;;;;;;;;;4.00;4.00;;;;;16.01;100.00;100567.72;5082101;28;45601;-75
2023/05/07 02:31:02;;;;;;;;;7.25;7.25;;;;;16.05;100.00;100563.09;5082164;27;45345;-76
2023/05/07 02:33:28;;;;;;;;;4.50;4.50;;;;;16.10;100.00;100568.94;5079781;28;45311;-76
2023/05/07 02:35:53;;;;;;;;;3.75;3.75;;;;;16.09;100.00;100566.38;5076752;28;45320;-74
2023/05/07 02:38:18;;;;;;;;;3.75;3.75;;;;;16.13;100.00;100567.88;5076751;28;45574;-78
2023/05/07 02:40:44;;;;;;;;;5.25;5.25;;;;;16.13;100.00;100570.53;5076733;27;46277;-75
2023/05/07 02:43:09;;;;;;;;;6.50;6.50;;;;;16.13;100.00;100578.50;5075284;28;63637;-76
2023/05/07 02:45:37;;;;;;;;;8.25;8.25;;;;;16.11;100.00;100577.75;5075363;28;45220;-78
2023/05/07 02:48:02;;;;;;;;;5.00;5.00;;;;;16.07;100.00;100577.09;5076238;27;45419;-76
2023/05/07 02:50:28;;;;;;;;;4.25;4.25;;;;;16.04;100.00;100575.47;5074467;27;48080;-75
2023/05/07 02:52:54;;;;;;;;;5.25;5.25;;;;;16.07;100.00;100579.75;5075898;27;45470;-75
2023/05/07 02:55:19;;;;;;;;;4.50;4.50;;;;;16.10;100.00;100581.34;5076091;27;45319;-79
2023/05/07 02:57:44;;;;;;;;;5.00;5.00;;;;;16.09;100.00;100571.69;5076785;28;45636;-76
2023/05/07 03:00:18;;;;;;;;;7.25;7.25;;;;;16.10;100.00;100586.66;5080586;27;46185;-74
2023/05/07 03:02:44;;;;;;;;;7.50;7.50;;;;;16.09;100.00;100580.50;5082717;28;45277;-78
2023/05/07 03:05:10;;;;;;;;;9.00;9.00;;;;;16.06;100.00;100580.72;5075933;28;45283;-77
2023/05/07 03:07:36;;;;;;;;;5.00;5.00;;;;;16.06;100.00;100575.41;5076188;27;45609;-76
2023/05/07 03:10:02;;;;;;;;;8.00;8.00;;;;;16.05;100.00;100579.00;5057034;28;48183;-77
2023/05/07 03:12:27;;;;;;;;;7.25;7.25;;;;;16.06;100.00;100583.38;5075856;27;45941;-76
2023/05/07 03:14:52;;;;;;;;;3.75;3.75;;;;;16.08;100.00;100584.13;5076015;28;45391;-78
2023/05/07 03:17:18;;;;;;;;;4.50;4.50;;;;;16.07;100.00;100579.75;5076497;28;45492;-78
2023/05/07 03:19:43;;;;;;;;;7.50;7.50;;;;;16.05;100.00;100573.69;5076401;27;45480;-70
2023/05/07 03:22:08;;;;;;;;;5.00;5.00;;;;;16.01;100.00;100569.53;5076508;27;61000;-74
2023/05/07 03:24:34;;;;;;;;;6.00;6.00;;;;;16.01;100.00;100574.84;5076311;28;45257;-74
2023/05/07 03:27:00;;;;;;;;;3.25;3.25;;;;;15.94;100.00;100562.91;5057346;28;45319;-74
2023/05/07 03:29:26;;;;;;;;;6.25;6.25;;;;;15.87;100.00;100563.28;5075096;27;45419;-71
2023/05/07 03:31:51;;;;;;;;;7.25;7.25;;;;;15.80;100.00;100547.81;5075226;28;45240;-76
2023/05/07 03:34:21;;;;;;;;;5.00;5.00;;;;;15.83;100.00;100561.72;5075641;28;45252;-74
2023/05/07 03:36:47;;;;;;;;;6.50;6.50;;;;;15.86;100.00;100564.19;5075586;28;45375;-73
2023/05/07 03:39:12;;;;;;;;;10.00;10.00;;;;;15.88;100.00;100564.97;5074926;27;45415;-76
2023/05/07 03:41:38;;;;;;;;;11.00;11.00;;;;;15.89;100.00;100576.47;5075290;27;50347;-76
2023/05/07 03:44:03;;;;;;;;;8.50;8.50;;;;;15.84;100.00;100566.09;5056744;28;45268;-74
2023/05/07 03:46:28;;;;;;;;;9.75;9.75;;;;;15.85;100.00;100573.09;5075417;28;45386;-73
2023/05/07 03:48:54;;;;;;;;;10.75;10.75;;;;;15.87;100.00;100575.66;5074944;28;46338;-72
2023/05/07 03:51:19;;;;;;;;;7.75;7.75;;;;;15.89;100.00;100587.06;5056744;28;45283;-75
2023/05/07 03:53:44;;;;;;;;;10.00;10.00;;;;;15.80;100.00;100574.34;5075213;28;45398;-74
2023/05/07 03:56:10;;;;;;;;;8.75;8.75;;;;;15.85;100.00;100586.34;5075257;28;45580;-75
2023/05/07 03:58:35;;;;;;;;;9.50;9.50;;;;;15.85;100.00;100589.00;5056334;28;46454;-72
2023/05/07 04:01:00;;;;;;;;;8.25;8.25;;;;;15.85;100.00;100599.63;5074870;27;45274;-71
2023/05/07 04:03:26;;;;;;;;;7.00;7.00;;;;;15.79;100.00;100594.69;5074858;28;45300;-73
2023/05/07 04:05:51;;;;;;;;;6.00;6.00;;;;;15.78;100.00;100598.31;5075017;28;45411;-75
2023/05/07 04:08:16;;;;;;;;;4.25;4.25;;;;;15.72;100.00;100588.94;5074635;28;45284;-70
2023/05/07 04:10:42;;;;;;;;;4.00;4.00;;;;;15.74;100.00;100584.41;5075027;28;47210;-72
2023/05/07 04:13:07;;;;;;;;;2.25;2.25;;;;;15.77;100.00;100592.16;5074912;28;45227;-76
2023/05/07 04:15:32;;;;;;;;;4.25;4.00;;;;;15.75;100.00;100590.53;5074706;27;45664;-73
2023/05/07 04:17:58;;;;;;;;;2.00;2.00;;;;;15.72;100.00;100582.75;5074939;28;47063;-74
2023/05/07 04:20:23;;;;;;;;;6.25;6.25;;;;;15.79;100.00;100584.09;5072621;28;57598;-78
2023/05/07 04:22:48;;;;;;;;;5.50;5.50;;;;;15.78;100.00;100585.91;5074436;27;56027;-75
2023/05/07 04:25:16;;;;;;;;;4.00;4.00;;;;;15.82;100.00;100589.22;5074842;28;45466;-69
2023/05/07 04:27:41;;;;;;;;;5.25;5.25;;;;;15.82;100.00;100589.22;5074798;28;45319;-75
2023/05/07 04:30:07;;;;;;;;;8.00;8.00;;;;;15.83;100.00;100587.41;5074453;27;45387;-76
2023/05/07 04:32:32;;;;;;;;;5.00;5.00;;;;;15.84;100.00;100592.63;5074545;28;45323;-77
2023/05/07 04:34:57;;;;;;;;;4.50;4.50;;;;;15.73;100.00;100580.03;5074286;28;46221;-77
2023/05/07 04:37:23;;;;;;;;;3.00;3.00;;;;;15.71;100.00;100573.09;5074048;28;50522;-75
2023/05/07 04:39:48;;;;;;;;;4.00;4.00;;;;;15.82;100.00;100597.16;5074330;28;45450;-77
2023/05/07 04:42:17;;;;;;;;;4.25;4.25;;;;;15.81;100.00;100598.09;5074873;27;45422;-74
2023/05/07 04:44:46;;;;;;;;;4.00;4.00;;;;;15.82;100.00;100607.78;5074788;28;45364;-78
2023/05/07 04:47:11;;;;;;;;;4.00;4.00;;;;;15.83;100.00;100611.28;5074679;28;46634;-74
2023/05/07 04:49:38;;;;;;;;;4.50;4.50;;;;;15.83;100.00;100616.59;5074101;27;45404;-77
2023/05/07 04:52:04;;;;;;;;;4.00;4.00;;;;;15.77;100.00;100608.06;5056050;28;45420;-77
2023/05/07 04:54:29;;;;;;;;;6.75;6.75;;;;;15.85;100.00;100623.50;5074582;28;45664;-77
2023/05/07 04:56:55;;;;;;;;;6.50;6.50;;;;;15.87;100.00;100615.44;5074148;28;46192;-78
2023/05/07 04:59:20;;;;;;;;;4.00;4.00;;;;;15.91;100.00;100631.13;5056067;28;45368;-77
2023/05/07 05:01:45;;;;;;;;;3.50;3.50;;;;;15.89;100.00;100629.50;5074985;28;45292;-76
2023/05/07 05:04:11;;;;;;;;;5.75;5.75;;;;;15.90;100.00;100629.44;5075238;28;45349;-77
2023/05/07 05:06:36;;;;;;;;;6.75;6.75;;;;;15.93;100.00;100633.66;5075224;28;45724;-75
2023/05/07 05:09:02;;;;;;;;;5.00;5.00;;;;;15.93;100.00;100633.66;5075998;28;45302;-79
2023/05/07 05:11:27;;;;;;;;;4.00;4.00;;;;;15.93;100.00;100624.88;5078611;28;45323;-76
2023/05/07 05:13:52;;;;;;;;;3.50;3.50;;;;;15.97;100.00;100629.03;5077608;27;45614;-77
2023/05/07 05:16:17;;;;;;;;;4.00;4.00;;;;;15.95;100.00;100631.78;5058120;28;67559;-76
2023/05/07 05:18:43;;;;;;;;;3.00;3.00;;;;;15.95;100.00;100629.13;5077590;27;45231;-73
2023/05/07 05:21:08;;;;;;;;;2.00;2.00;;;;;15.90;100.00;100632.09;5059251;28;45315;-77
2023/05/07 05:23:34;;;;;;;;;2.25;2.25;;;;;15.90;100.00;100640.03;5077580;27;45987;-75
2023/05/07 05:25:59;;;;;;;;;3.00;3.00;;;;;15.84;100.00;100636.88;5077337;27;46306;-75
2023/05/07 05:28:24;;;;;;;;;4.00;4.00;;;;;15.86;100.00;100656.19;5077229;28;45450;-72
2023/05/07 05:30:50;;;;;;;;;2.00;2.00;;;;;15.83;100.00;100654.56;5077682;28;45428;-76
2023/05/07 05:33:16;;;;;;;;;1.75;1.75;;;;;15.78;100.00;100646.03;5078831;28;45311;-75
2023/05/07 05:35:41;;;;;;;;;2.00;2.00;;;;;15.72;100.00;100649.94;5078237;28;46156;-76
2023/05/07 05:38:07;;;;;;;;;3.00;3.00;;;;;15.71;100.00;100650.00;5078945;27;45320;-72
2023/05/07 05:40:33;;;;;;;;;2.00;2.00;;;;;15.72;100.00;100646.41;5079268;27;45915;-73
2023/05/07 05:42:58;;;;;;;;;2.00;2.00;;;;;15.72;100.00;100646.41;5060461;27;45706;-76
2023/05/07 05:45:24;;;;;;;;;2.00;2.00;;;;;15.78;100.00;100657.50;5078509;28;45461;-75
2023/05/07 05:47:49;;;;;;;;;2.00;2.00;;;;;15.54;100.00;100612.13;5061024;28;45662;-74
2023/05/07 05:50:14;;;;;;;;;2.00;2.00;;;;;15.80;100.00;100651.25;5078688;27;45261;-77
2023/05/07 05:52:40;;;;;;;;;3.25;3.25;;;;;15.85;100.00;100657.13;5059353;28;45262;-77
2023/05/07 05:55:06;;;;;;;;;3.00;3.00;;;;;15.88;100.00;100660.47;5058411;28;47091;-77
2023/05/07 05:57:31;;;;;;;;;3.25;3.25;;;;;15.94;100.00;100664.56;5076768;27;45410;-77
2023/05/07 05:59:57;;;;;;;;;3.00;3.00;;;;;15.97;100.00;100660.88;5077155;28;45312;-78
2023/05/07 06:02:22;;;;;;;;;4.00;4.00;;;;;16.01;100.00;100662.41;5076978;27;45605;-75
2023/05/07 06:04:47;;;;;;;;;4.00;4.00;;;;;16.03;100.00;100657.84;5077093;27;45405;-76
2023/05/07 06:07:13;;;;;;;;;3.75;3.75;;;;;16.05;100.00;100664.75;5076590;28;45410;-77
2023/05/07 06:09:38;;;;;;;;;4.00;4.00;;;;;16.13;100.00;100674.03;5075764;28;58301;-77
2023/05/07 06:12:03;;;;;;;;;3.00;3.00;;;;;16.16;100.00;100666.75;5076944;27;45567;-76
2023/05/07 06:14:29;;;;;;;;;5.25;5.25;;;;;16.21;100.00;100667.31;5076312;27;45336;-74
2023/05/07 06:16:54;;;;;;;;;6.50;5.75;;;;;16.26;100.00;100671.47;5076724;28;45401;-78
2023/05/07 06:19:23;;;;;;;;;5.00;5.00;;;;;16.29;100.00;100666.81;5076895;27;45272;-78
2023/05/07 06:21:48;;;;;;;;;5.00;5.00;;;;;16.32;100.00;100671.94;5058502;28;45472;-76
2023/05/07 06:24:14;;;;;;;;;8.75;8.75;;;;;16.37;100.00;100674.31;5075974;27;45438;-74
2023/05/07 06:26:39;;;;;;;;;5.25;5.25;;;;;16.38;100.00;100676.00;5076146;27;45312;-75
2023/05/07 06:29:05;;;;;;;;;7.25;7.25;;;;;16.45;100.00;100676.50;5076133;28;45264;-77
2023/05/07 06:31:31;;;;;;;;;5.25;5.25;;;;;16.47;100.00;100677.25;5058245;28;45575;-78
2023/05/07 06:33:57;;;;;;;;;3.25;3.25;;;;;16.47;100.00;100672.75;5076169;28;45445;-76
2023/05/07 06:36:22;;;;;;;;;3.00;3.00;;;;;16.47;100.00;100672.75;5076110;28;45390;-76
2023/05/07 06:38:48;;;;;;;;;2.75;2.75;;;;;16.50;100.00;100677.03;5058601;28;45203;-78
2023/05/07 06:41:13;;;;;;;;;2.00;2.00;;;;;16.53;100.00;100675.97;5076529;28;45548;-77
2023/05/07 06:43:38;;;;;;;;;4.00;4.00;;;;;16.55;100.00;100674.94;5075710;27;50722;-77
2023/05/07 06:46:04;;;;;;;;;8.50;8.50;;;;;16.58;100.00;100680.06;5076392;28;45398;-79
2023/05/07 06:48:29;;;;;;;;;5.00;5.00;;;;;16.61;100.00;100685.19;5076931;28;45309;-77
2023/05/07 06:50:55;;;;;;;;;3.50;3.50;;;;;16.67;100.00;100681.25;5076759;28;45340;-75
2023/05/07 06:53:21;;;;;;;;;2.00;2.00;;;;;16.75;100.00;100689.56;5076828;27;46511;-75
2023/05/07 06:55:46;;;;;;;;;2.00;2.00;;;;;16.78;100.00;100684.06;5076873;28;45422;-74
2023/05/07 06:58:11;;;;;;;;;4.00;3.00;;;;;16.83;100.00;100688.22;5077029;28;45473;-77
2023/05/07 07:00:37;;;;;;;;;2.50;2.50;;;;;16.88;100.00;100694.09;5076973;28;45399;-74
2023/05/07 07:03:02;;;;;;;;;3.00;3.00;;;;;16.89;100.00;100686.03;5075760;28;45469;-78
2023/05/07 07:05:27;;;;;;;;;3.00;3.00;;;;;16.93;100.00;100699.97;5075836;28;45369;-78
2023/05/07 07:07:52;;;;;;;;;2.00;2.00;;;;;16.95;100.00;100690.09;5076009;27;46715;-76
2023/05/07 07:10:19;;;;;;;;;3.25;3.25;;;;;17.00;100.00;100700.47;5075827;28;45560;-77
2023/05/07 07:12:45;;;;;;;;;5.00;5.00;;;;;17.02;100.00;100695.91;5075651;28;46443;-70
2023/05/07 07:15:11;;;;;;;;;3.75;3.75;;;;;17.07;100.00;100701.75;5075339;28;45472;-72
2023/05/07 07:17:36;;;;;;;;;2.50;2.50;;;;;17.11;100.00;100702.41;5075722;28;45251;-75
2023/05/07 07:20:02;;;;;;;;;2.25;2.25;;;;;17.12;100.00;100718.25;5075618;27;45249;-74
2023/05/07 07:22:28;;;;;;;;;5.00;5.00;;;;;17.12;100.00;100712.09;5075333;28;46290;-73
2023/05/07 07:24:53;;;;;;;;;2.00;2.00;;;;;17.10;100.00;100695.41;5075476;27;45240;-70
2023/05/07 07:27:18;;;;;;;;;2.00;2.00;;;;;17.12;100.00;100704.13;5075423;28;45207;-71
2023/05/07 07:29:44;;;;;;;;;0.00;0.00;;;;;17.09;100.00;100715.78;5057534;28;45590;-72
2023/05/07 07:32:09;;;;;;;;;2.00;2.00;;;;;16.99;100.00;100718.22;5074471;27;46208;-73
2023/05/07 07:34:34;;;;;;;;;2.00;2.00;;;;;16.97;100.00;100721.88;5075371;27;45291;-75
2023/05/07 07:37:05;;;;;;;;;2.00;2.00;;;;;16.93;100.00;100729.19;5075448;28;45399;-75
2023/05/07 07:39:30;;;;;;;;;1.75;1.75;;;;;16.83;100.00;100722.75;5075462;28;45348;-74
2023/05/07 07:41:56;;;;;;;;;1.50;1.50;;;;;16.78;100.00;100731.88;5075028;28;46304;-74
2023/05/07 07:44:21;;;;;;;;;2.00;2.00;;;;;16.75;100.00;100728.59;5074796;28;51958;-73
2023/05/07 07:46:46;;;;;;;;;3.25;3.25;;;;;16.69;100.00;100721.84;5075249;28;45240;-76
2023/05/07 07:49:11;;;;;;;;;4.25;4.25;;;;;16.69;100.00;100734.28;5075424;28;45597;-77
2023/05/07 07:51:37;;;;;;;;;5.00;5.00;;;;;16.71;100.00;100735.88;5074267;28;57939;-77
2023/05/07 07:54:03;;;;;;;;;4.00;4.00;;;;;16.72;100.00;100726.13;5074957;27;45261;-76
2023/05/07 07:56:28;;;;;;;;;2.50;2.00;;;;;16.78;100.00;100725.72;5075410;28;45416;-77
2023/05/07 07:58:53;;;;;;;;;1.50;1.50;;;;;16.83;100.00;100728.94;5075618;28;45224;-76
2023/05/07 08:01:19;;;;;;;;;3.00;3.00;;;;;16.90;100.00;100730.25;5074854;27;46471;-76
2023/05/07 08:03:45;;;;;;;;;3.00;3.00;;;;;16.94;100.00;100731.75;5074825;28;45633;-76
2023/05/07 08:06:10;;;;;;;;;3.00;3.00;;;;;16.98;100.00;100739.56;5055878;28;45361;-77
2023/05/07 08:08:35;;;;;;;;;4.75;4.75;;;;;17.00;100.00;100737.66;5074932;28;45317;-75
2023/05/07 08:11:01;;;;;;;;;2.00;2.00;;;;;17.04;100.00;100741.81;5074265;28;46102;-76
2023/05/07 08:13:26;;;;;;;;;2.00;2.00;;;;;17.05;100.00;100743.53;5074662;28;45403;-75
2023/05/07 08:15:52;;;;;;;;;2.75;2.75;;;;;16.99;100.00;100726.19;5074731;28;45436;-76
2023/05/07 08:18:17;;;;;;;;;3.00;3.00;;;;;17.13;100.00;100745.69;5056609;28;45879;-76
2023/05/07 08:20:43;;;;;;;;;3.00;3.00;;;;;17.19;100.00;100747.94;5074575;27;49031;-76
2023/05/07 08:23:08;;;;;;;;;3.00;3.00;;;;;17.28;100.00;100757.09;5074468;28;45406;-75
2023/05/07 08:25:34;;;;;;;;;3.00;3.00;;;;;17.29;100.00;100751.72;5074600;27;45343;-76
2023/05/07 08:28:00;;;;;;;;;3.25;3.25;;;;;17.38;100.00;100761.72;5074862;28;45342;-78
2023/05/07 08:30:25;;;;;;;;;5.25;5.25;;;;;17.46;100.00;100763.03;5074640;28;45370;-77
2023/05/07 08:32:51;;;;;;;;;4.00;4.00;;;;;17.55;100.00;100765.06;5074793;28;45362;-77
2023/05/07 08:35:16;;;;;;;;;2.75;2.75;;;;;17.62;100.00;100758.38;5075070;28;45323;-72
2023/05/07 08:37:41;;;;;;;;;4.25;4.25;;;;;17.69;100.00;100771.28;5075056;27;45330;-75
2023/05/07 08:40:07;;;;;;;;;4.00;4.00;;;;;17.73;100.00;100767.44;5073978;28;65030;-77
2023/05/07 08:42:36;;;;;;;;;3.00;3.00;;;;;17.78;100.00;100779.50;5077491;27;45265;-77
2023/05/07 08:45:05;;;;;;;;;4.75;4.75;;;;;17.79;100.00;100767.91;5083904;28;44778;-75
2023/05/07 08:47:38;;;;;;;;;4.00;4.00;;;;;17.86;100.00;100776.31;5092183;27;45355;-75
2023/05/07 08:50:05;;;;;;;;;3.75;3.75;;;;;17.79;100.00;100754.59;5089177;28;45280;-76
2023/05/07 08:52:31;;;;;;;;;7.75;7.75;;;;;17.95;100.00;100780.16;5078352;27;45189;-73
2023/05/07 08:54:58;;;;;;;;;8.25;8.25;;;;;17.95;100.00;100781.00;5078001;27;45382;-76
2023/05/07 08:57:24;;;;;;;;;4.50;4.00;;;;;18.00;100.00;100780.72;5077865;28;45503;-75
2023/05/07 08:59:49;;;;;;;;;4.75;4.75;;;;;18.04;100.00;100773.41;5059487;28;46297;-78
2023/05/07 09:02:16;;;;;;;;;5.00;5.00;;;;;18.12;100.00;100775.50;5077986;27;45445;-74
2023/05/07 09:04:42;;;;;;;;;3.25;3.25;;;;;18.16;100.00;100782.34;5061373;28;45364;-75
2023/05/07 09:07:07;;;;;;;;;4.00;4.00;;;;;18.19;100.00;100777.66;5079335;27;45556;-76
2023/05/07 09:09:33;;;;;;;;;3.50;3.50;;;;;18.23;100.00;100791.59;5078566;28;45771;-77
2023/05/07 09:11:59;;;;;;;;;3.25;3.25;;;;;18.22;100.00;100782.78;5059828;28;45283;-77
2023/05/07 09:14:25;;;;;;;;;7.50;7.50;;;;;18.24;100.00;100778.19;5077344;27;45450;-76
2023/05/07 09:16:53;;;;;;;;;7.00;7.00;;;;;18.25;100.00;100787.88;5077483;28;45741;-77
2023/05/07 09:19:23;;;;;;;;;3.75;3.75;;;;;18.24;100.00;100782.66;5075591;27;48686;-73
2023/05/07 09:21:48;;;;;;;;;8.50;8.50;;;;;18.24;100.00;100780.84;5077226;27;45500;-78
2023/05/07 09:24:15;;;;;;;;;3.75;3.75;;;;;18.28;100.00;100791.28;5077319;27;45420;-75
2023/05/07 09:26:41;;;;;;;;;5.25;5.25;;;;;18.25;100.00;100787.00;5077569;28;45461;-78
2023/05/07 09:29:07;;;;;;;;;3.75;3.75;;;;;18.22;100.00;100781.91;5077135;27;45777;-76
2023/05/07 09:31:37;;;;;;;;;0.75;0.75;;;;;18.24;100.00;100791.50;5077560;28;45344;-77
2023/05/07 09:34:04;;;;;;;;;3.75;3.75;;;;;18.18;100.00;100786.59;5059151;27;45367;-77
2023/05/07 09:36:32;;;;;;;;;6.00;6.00;;;;;18.17;100.00;100784.91;5078051;27;45197;-75
2023/05/07 09:38:59;;;;;;;;;13.50;13.50;;;;;18.18;100.00;100781.28;5077562;27;46392;-73
2023/05/07 09:41:25;;;;;;;;;7.00;7.00;;;;;18.25;100.00;100793.22;5077371;27;45383;-77
2023/05/07 09:43:54;;;;;;;;;4.50;4.50;;;;;18.27;99.94;100789.59;5059039;28;45386;-73
2023/05/07 09:46:27;;;;;;;;;3.25;3.25;;;;;18.30;99.76;100784.06;5077636;27;45637;-75
2023/05/07 09:48:56;;;;;;;;;5.50;5.50;;;;;18.35;99.36;100788.06;5077314;27;45538;-77
2023/05/07 09:51:28;;;;;;;;;5.50;5.50;;;;;18.35;99.71;100784.56;5077132;27;45471;-75
2023/05/07 09:53:54;;;;;;;;;5.00;5.00;;;;;18.36;99.73;100788.94;5077027;28;45501;-76
2023/05/07 09:56:20;;;;;;;;;3.75;3.75;;;;;18.37;99.16;100786.16;5058276;28;45304;-76
2023/05/07 09:58:46;;;;;;;;;4.25;4.25;;;;;18.47;99.19;100790.84;5077038;27;45435;-76
2023/05/07 10:01:12;;;;;;;;;7.00;6.25;;;;;18.49;98.04;100787.13;5076882;27;45319;-76
2023/05/07 10:03:41;;;;;;;;;4.25;4.25;;;;;18.57;96.90;100796.38;5077464;27;45378;-78
2023/05/07 10:06:08;;;;;;;;;4.00;4.00;;;;;18.58;96.45;100790.09;5076868;27;45461;-74
2023/05/07 10:08:35;;;;;;;;;6.50;6.50;;;;;18.62;95.98;100792.44;5077098;27;46344;-75
2023/05/07 10:11:01;;;;;;;;;11.25;11.25;;;;;18.65;95.64;100783.38;5059388;28;45393;-76
2023/05/07 10:13:26;;;;;;;;;5.75;5.75;;;;;18.70;94.91;100783.88;5059144;28;45453;-75
2023/05/07 10:15:53;;;;;;;;;7.00;7.00;;;;;18.65;93.61;100784.22;5077181;27;45229;-77
2023/05/07 10:18:23;;;;;;;;;8.00;8.00;;;;;18.77;94.54;100790.47;5077101;27;45676;-77
2023/05/07 10:20:52;;;;;;;;;7.00;7.00;;;;;18.81;94.23;100791.97;5076038;28;45347;-79
2023/05/07 10:23:23;;;;;;;;;8.00;8.00;;;;;18.86;94.52;100796.97;5076184;27;45208;-78
2023/05/07 10:25:48;;;;;;;;;9.00;9.00;;;;;18.89;93.76;100799.41;5076941;27;45320;-78
2023/05/07 10:28:16;;;;;;;;;4.75;4.75;;;;;18.95;92.92;100803.44;5076415;28;46271;-74
2023/05/07 10:30:47;;;;;;;;;5.00;5.00;;;;;18.97;92.80;100804.22;5078383;28;45200;-76
2023/05/07 10:33:16;;;;;;;;;5.25;5.25;;;;;19.02;91.75;100795.91;5081909;28;45328;-72
2023/05/07 10:35:44;;;;;;;;;4.75;4.75;;;;;19.03;90.68;100793.09;5083645;28;45244;-71
2023/05/07 10:38:10;;;;;;;;;4.00;4.00;;;;;19.09;90.28;100795.34;5081647;27;46101;-75
2023/05/07 10:40:36;;;;;;;;;6.00;6.00;;;;;19.17;91.19;100802.78;5077634;28;45369;-70
2023/05/07 10:43:04;;;;;;;;;8.00;8.00;;;;;19.24;90.15;100797.84;5077121;27;45427;-75
2023/05/07 10:45:31;;;;;;;;;15.00;15.00;;;;;19.29;90.19;100810.84;5058717;28;45372;-77
2023/05/07 10:48:16;;;;;;;;;7.00;7.00;;;;;19.34;89.52;100809.53;5058255;28;47029;-75
2023/05/07 10:50:48;;;;;;;;;7.75;7.75;;;;;19.37;89.72;100801.31;5076229;27;45286;-76
2023/05/07 10:53:19;;;;;;;;;6.75;6.75;;;;;19.47;88.98;100808.63;5076079;27;45345;-75
2023/05/07 10:55:47;;;;;;;;;8.00;8.00;;;;;19.50;88.95;100811.06;5076207;27;45561;-73
2023/05/07 10:58:21;;;;;;;;;9.00;9.00;;;;;19.53;89.03;100809.00;5075583;28;45448;-74
2023/05/07 11:00:47;;;;;;;;;10.25;10.25;;;;;19.51;89.03;100805.59;5075749;28;45346;-77
2023/05/07 11:03:14;;;;;;;;;6.00;6.00;;;;;19.53;87.96;100809.00;5057580;28;45344;-74
2023/05/07 11:05:41;;;;;;;;;6.00;6.00;;;;;19.55;87.70;100811.59;5075527;27;45469;-77
2023/05/07 11:08:08;;;;;;;;;6.00;6.00;;;;;19.51;87.22;100802.94;5074890;28;46198;-71
2023/05/07 11:10:49;;;;;;;;;8.25;8.25;;;;;19.57;87.79;100814.97;5076045;28;45264;-75